Time;durP1;ratioP1;P1;durP2;ratioP2;P2;SDS_P1;SDS_P2;PMS_P1;PMS_P2;Temp;Humidity;BMP_temperature;BMP_pressure;BME280_temperature;BME280_humidity;BME280_pressure;Samples;Min_cycle;Max_cycle;Signal;HPM_P1;HPM_P2
2021/01/25 00:01:40;;;;;;;58.53;22.48;;;-0.40;99.90;;;;;;4982024;28;20176;-79
2021/01/25 00:04:06;;;;;;;53.42;23.70;;;-0.40;99.90;;;;;;4984605;28;20141;-77
2021/01/25 00:06:32;;;;;;;51.28;22.88;;;-0.40;99.90;;;;;;4985237;28;20050;-78
2021/01/25 00:08:59;;;;;;;53.90;24.25;;;-0.40;99.90;;;;;;4986463;28;20077;-78
2021/01/25 00:11:25;;;;;;;50.30;22.75;;;-0.40;99.90;;;;;;4979267;28;20078;-79
2021/01/25 00:13:51;;;;;;;53.97;23.80;;;-0.40;99.90;;;;;;4979197;28;20073;-79
2021/01/25 00:16:17;;;;;;;54.50;23.15;;;-0.50;99.90;;;;;;4987946;28;20566;-78
2021/01/25 00:18:44;;;;;;;54.22;22.17;;;-0.40;99.90;;;;;;4981642;28;20050;-78
2021/01/25 00:21:10;;;;;;;51.85;23.08;;;-0.40;99.90;;;;;;4986550;28;20486;-78
2021/01/25 00:23:36;;;;;;;48.15;22.08;;;-0.40;99.90;;;;;;4986365;28;20050;-79
2021/01/25 00:26:03;;;;;;;52.38;23.13;;;-0.40;99.90;;;;;;4980733;28;20061;-78
2021/01/25 00:28:29;;;;;;;51.35;23.67;;;-0.50;99.90;;;;;;4985465;28;20077;-79
2021/01/25 00:30:55;;;;;;;55.90;23.02;;;-0.50;99.90;;;;;;4984957;28;20490;-77
2021/01/25 00:33:21;;;;;;;55.28;22.77;;;-0.50;99.90;;;;;;4983423;28;20070;-78
2021/01/25 00:35:48;;;;;;;51.38;23.25;;;-0.50;99.90;;;;;;4986040;28;20387;-78
2021/01/25 00:38:14;;;;;;;52.95;22.70;;;-0.50;99.90;;;;;;4980835;28;20046;-77
2021/01/25 00:40:41;;;;;;;55.03;23.17;;;-0.50;99.90;;;;;;4983812;28;20417;-77
2021/01/25 00:43:07;;;;;;;45.25;23.00;;;-0.50;99.90;;;;;;4984721;28;20054;-78
2021/01/25 00:45:34;;;;;;;54.90;23.15;;;-0.60;99.90;;;;;;4984462;28;20490;-79
2021/01/25 00:48:00;;;;;;;56.17;26.17;;;-0.50;99.90;;;;;;4986130;28;20410;-78
2021/01/25 00:50:26;;;;;;;56.38;23.48;;;-0.60;99.90;;;;;;4983888;28;20120;-79
2021/01/25 00:52:53;;;;;;;50.22;23.92;;;-0.60;99.90;;;;;;4986654;28;20048;-79
2021/01/25 00:55:19;;;;;;;54.47;24.52;;;-0.60;99.90;;;;;;4987202;28;20085;-79
2021/01/25 00:57:46;;;;;;;60.47;25.05;;;-0.50;99.90;;;;;;4985679;28;20050;-79
2021/01/25 01:00:14;;;;;;;59.10;24.73;;;-0.60;99.90;;;;;;4988035;28;20054;-79
2021/01/25 01:02:40;;;;;;;56.92;25.10;;;-0.50;99.90;;;;;;5004527;28;20050;-79
2021/01/25 01:05:08;;;;;;;64.03;24.77;;;-0.50;99.90;;;;;;4989448;28;20061;-79
2021/01/25 01:07:35;;;;;;;48.75;23.45;;;-0.50;99.90;;;;;;4987324;28;20045;-78
2021/01/25 01:10:03;;;;;;;57.53;23.05;;;-0.60;99.90;;;;;;4984375;28;20485;-79
2021/01/25 01:12:30;;;;;;;57.25;24.17;;;-0.60;99.90;;;;;;4987374;28;20142;-78
2021/01/25 01:14:56;;;;;;;66.13;23.88;;;-0.60;99.90;;;;;;4989307;28;20050;-79
2021/01/25 01:17:22;;;;;;;61.15;25.15;;;-0.60;99.90;;;;;;4981860;28;20054;-79
2021/01/25 01:19:49;;;;;;;63.58;25.42;;;-0.60;99.90;;;;;;4986553;28;20111;-80
2021/01/25 01:22:15;;;;;;;62.03;25.52;;;-0.60;99.90;;;;;;4986173;28;20054;-79
2021/01/25 01:24:41;;;;;;;64.50;25.13;;;-0.60;99.90;;;;;;4988529;28;20114;-79
2021/01/25 01:27:07;;;;;;;67.90;26.77;;;-0.70;99.90;;;;;;4987446;28;20085;-79
2021/01/25 01:29:34;;;;;;;64.60;26.95;;;-0.60;99.90;;;;;;4983638;28;20052;-79
2021/01/25 01:32:00;;;;;;;61.08;26.00;;;-0.70;99.90;;;;;;4985614;28;20482;-79
2021/01/25 01:34:26;;;;;;;62.10;25.75;;;-0.70;99.90;;;;;;4983065;28;20070;-78
2021/01/25 01:36:52;;;;;;;62.63;24.90;;;-0.70;99.90;;;;;;4986677;28;20054;-79
2021/01/25 01:39:19;;;;;;;60.65;24.23;;;-0.70;99.90;;;;;;4985475;28;20068;-79
2021/01/25 01:41:45;;;;;;;63.55;25.15;;;-0.70;99.90;;;;;;4986041;28;20049;-79
2021/01/25 01:44:11;;;;;;;60.38;25.17;;;-0.70;99.90;;;;;;4987019;28;20070;-79
2021/01/25 01:46:42;;;;;;;66.15;26.98;;;-0.80;99.90;;;;;;4979721;28;20096;-79
2021/01/25 01:49:11;;;;;;;60.83;25.55;;;-0.80;99.90;;;;;;4989199;28;20051;-79
2021/01/25 01:51:38;;;;;;;66.38;26.27;;;-0.80;99.90;;;;;;4983698;28;20137;-79
2021/01/25 01:54:06;;;;;;;67.22;27.33;;;-0.80;99.90;;;;;;4987802;28;20560;-79
2021/01/25 01:56:34;;;;;;;62.35;25.95;;;-0.80;99.90;;;;;;4984650;28;20122;-79
2021/01/25 01:59:00;;;;;;;68.00;27.42;;;-0.80;99.90;;;;;;4986644;28;20497;-78
2021/01/25 02:01:26;;;;;;;56.05;24.40;;;-0.80;99.90;;;;;;4985301;28;20157;-77
2021/01/25 02:03:54;;;;;;;63.17;25.75;;;-0.80;99.90;;;;;;4982352;28;20056;-79
2021/01/25 02:06:22;;;;;;;60.88;25.20;;;-0.80;99.90;;;;;;4985338;28;20387;-79
2021/01/25 02:08:49;;;;;;;61.92;24.67;;;-0.90;99.90;;;;;;4981408;28;20058;-77
2021/01/25 02:11:17;;;;;;;57.97;25.15;;;-0.90;99.90;;;;;;4981347;28;20663;-77
2021/01/25 02:13:44;;;;;;;61.00;24.73;;;-0.90;99.90;;;;;;4977275;28;20046;-78
2021/01/25 02:16:10;;;;;;;59.00;24.98;;;-0.90;99.90;;;;;;4981663;28;20516;-77
2021/01/25 02:18:36;;;;;;;57.42;24.15;;;-1.00;99.90;;;;;;4978985;28;20065;-78
2021/01/25 02:21:05;;;;;;;59.72;25.00;;;-0.90;99.90;;;;;;4979804;28;20104;-77
2021/01/25 02:24:07;;;;;;;57.80;24.15;;;-1.00;99.90;;;;;;4975467;28;20050;-77
2021/01/25 02:26:44;;;;;;;58.10;24.60;;;-0.90;99.90;;;;;;4975920;28;20050;-78
2021/01/25 02:29:11;;;;;;;56.67;25.50;;;-0.90;99.90;;;;;;4980200;28;20084;-78
2021/01/25 02:31:39;;;;;;;65.88;25.52;;;-1.00;99.90;;;;;;4980481;28;20046;-77
2021/01/25 02:34:06;;;;;;;65.97;25.27;;;-0.90;99.90;;;;;;4976913;28;20053;-78
2021/01/25 02:36:33;;;;;;;56.40;24.83;;;-1.00;99.90;;;;;;4978355;28;20557;-77
2021/01/25 02:39:02;;;;;;;65.40;27.08;;;-0.90;99.90;;;;;;4980685;28;20056;-77
2021/01/25 02:41:29;;;;;;;60.25;26.13;;;-0.90;99.90;;;;;;4979950;28;20042;-77
2021/01/25 02:43:59;;;;;;;60.95;24.90;;;-1.00;99.90;;;;;;4994900;28;20157;-77
2021/01/25 02:46:28;;;;;;;58.40;25.20;;;-1.00;99.90;;;;;;4979143;28;20060;-77
2021/01/25 02:48:55;;;;;;;59.83;26.05;;;-1.00;99.90;;;;;;4974133;28;20042;-78
2021/01/25 02:51:22;;;;;;;60.15;26.55;;;-0.90;99.90;;;;;;4978207;28;20058;-78
2021/01/25 02:53:48;;;;;;;57.58;26.30;;;-0.90;99.90;;;;;;4981826;28;22549;-78
2021/01/25 02:56:15;;;;;;;61.90;26.35;;;-1.00;99.90;;;;;;4978739;28;20558;-77
2021/01/25 02:58:42;;;;;;;67.20;25.95;;;-0.90;99.90;;;;;;4975169;28;20054;-78
2021/01/25 03:01:09;;;;;;;54.05;25.58;;;-1.00;99.90;;;;;;4981012;28;20058;-78
2021/01/25 03:03:36;;;;;;;63.05;26.83;;;-1.00;99.90;;;;;;4980902;28;20058;-77
2021/01/25 03:06:02;;;;;;;69.50;27.95;;;-1.00;99.90;;;;;;4980512;28;20057;-78
2021/01/25 03:08:28;;;;;;;62.83;25.85;;;-1.00;99.90;;;;;;4976494;28;20050;-77
2021/01/25 03:10:55;;;;;;;66.70;26.98;;;-0.90;99.90;;;;;;4977271;28;20081;-78
2021/01/25 03:13:28;;;;;;;64.35;26.60;;;-1.00;99.90;;;;;;4978940;28;20137;-78
2021/01/25 03:15:59;;;;;;;61.65;26.27;;;-1.00;99.90;;;;;;4979082;28;20065;-77
2021/01/25 03:18:26;;;;;;;58.75;25.45;;;-1.00;99.90;;;;;;4974478;28;20402;-77
2021/01/25 03:20:54;;;;;;;68.35;28.55;;;-1.00;99.90;;;;;;4976553;28;20145;-77
2021/01/25 03:23:21;;;;;;;68.13;27.38;;;-1.00;99.90;;;;;;4979067;28;20516;-78
2021/01/25 03:25:47;;;;;;;60.45;26.75;;;-1.00;99.90;;;;;;4975987;28;20145;-78
2021/01/25 03:28:14;;;;;;;65.53;26.35;;;-1.10;99.90;;;;;;4974355;28;20061;-77
2021/01/25 03:30:40;;;;;;;64.60;27.02;;;-1.10;99.90;;;;;;4979310;28;20058;-78
2021/01/25 03:33:07;;;;;;;65.07;27.83;;;-1.10;99.90;;;;;;4975193;28;20081;-77
2021/01/25 03:35:33;;;;;;;67.07;28.42;;;-1.10;99.90;;;;;;4981004;28;20098;-77
2021/01/25 03:37:59;;;;;;;75.70;28.60;;;-1.10;99.90;;;;;;4975031;28;20046;-77
2021/01/25 03:40:25;;;;;;;71.30;28.35;;;-1.10;99.90;;;;;;4976228;28;20061;-77
2021/01/25 03:42:51;;;;;;;58.88;26.70;;;-1.10;99.90;;;;;;4972076;28;20137;-77
2021/01/25 03:45:18;;;;;;;68.03;26.23;;;-1.20;99.90;;;;;;4967606;28;20046;-77
2021/01/25 03:47:44;;;;;;;71.10;25.35;;;-1.20;99.90;;;;;;4971873;28;22201;-77
2021/01/25 03:50:11;;;;;;;57.22;25.90;;;-1.20;99.90;;;;;;4979489;28;20474;-77
2021/01/25 03:52:37;;;;;;;67.10;26.17;;;-1.30;99.90;;;;;;4976724;28;20054;-77
2021/01/25 03:55:04;;;;;;;68.82;28.25;;;-1.30;99.90;;;;;;4979623;28;20613;-77
2021/01/25 03:57:30;;;;;;;61.17;25.75;;;-1.30;99.90;;;;;;4975285;28;20502;-77
2021/01/25 03:59:56;;;;;;;64.55;26.13;;;-1.40;99.90;;;;;;4975848;28;20106;-78
2021/01/25 04:02:22;;;;;;;61.17;26.17;;;-1.40;99.90;;;;;;4976133;28;20056;-77
2021/01/25 04:04:48;;;;;;;62.85;26.45;;;-1.40;99.90;;;;;;4980587;28;20053;-77
2021/01/25 04:07:15;;;;;;;71.70;28.13;;;-1.40;99.90;;;;;;4976429;28;20061;-77
2021/01/25 04:09:41;;;;;;;67.13;26.75;;;-1.50;99.90;;;;;;4977975;28;20060;-77
2021/01/25 04:12:08;;;;;;;78.68;30.63;;;-1.50;99.90;;;;;;4976916;28;20054;-77
2021/01/25 04:14:34;;;;;;;64.50;27.38;;;-1.50;99.90;;;;;;4975470;28;20132;-77
2021/01/25 04:17:01;;;;;;;71.32;28.60;;;-1.60;99.90;;;;;;4993720;28;20124;-77
2021/01/25 04:19:27;;;;;;;65.85;27.98;;;-1.50;99.90;;;;;;4975728;28;20085;-77
2021/01/25 04:21:54;;;;;;;63.25;26.65;;;-1.60;99.90;;;;;;4969958;28;20133;-77
2021/01/25 04:24:20;;;;;;;64.70;26.08;;;-1.60;99.90;;;;;;4981455;28;20050;-77
2021/01/25 04:26:46;;;;;;;77.70;27.85;;;-1.60;99.90;;;;;;4981317;28;20050;-77
2021/01/25 04:29:13;;;;;;;82.57;29.85;;;-1.70;99.90;;;;;;4981077;28;20046;-77
2021/01/25 04:31:40;;;;;;;63.85;27.60;;;-1.70;99.90;;;;;;4979776;28;20486;-77
2021/01/25 04:34:07;;;;;;;68.63;28.17;;;-1.70;99.90;;;;;;4980440;28;20053;-77
2021/01/25 04:36:33;;;;;;;70.68;26.45;;;-1.70;99.90;;;;;;4979230;28;20050;-77
2021/01/25 04:39:00;;;;;;;65.68;26.48;;;-1.70;99.90;;;;;;4982527;28;20046;-77
2021/01/25 04:41:28;;;;;;;69.68;27.40;;;-1.80;99.90;;;;;;4980201;28;20050;-77
2021/01/25 04:43:54;;;;;;;65.13;27.23;;;-1.80;99.90;;;;;;4978867;28;20043;-77
2021/01/25 04:46:22;;;;;;;70.38;29.10;;;-1.80;99.90;;;;;;4981456;28;20042;-77
2021/01/25 04:48:49;;;;;;;70.60;28.20;;;-1.80;99.90;;;;;;4981039;28;20051;-77
2021/01/25 04:51:16;;;;;;;71.15;27.75;;;-1.80;99.90;;;;;;4981469;28;20413;-77
2021/01/25 04:53:46;;;;;;;67.68;29.15;;;-1.80;99.90;;;;;;4982079;28;20077;-77
2021/01/25 04:56:12;;;;;;;72.32;29.42;;;-1.80;99.90;;;;;;4981353;28;20058;-78
2021/01/25 04:58:39;;;;;;;70.07;27.90;;;-1.90;99.90;;;;;;4979400;28;20619;-77
2021/01/25 05:01:05;;;;;;;78.95;30.67;;;-1.90;99.90;;;;;;4981580;28;20112;-77
2021/01/25 05:03:32;;;;;;;84.68;31.08;;;-1.80;99.90;;;;;;4982318;28;20061;-77
2021/01/25 05:05:58;;;;;;;75.97;29.92;;;-1.80;99.90;;;;;;4979858;28;20061;-77
2021/01/25 05:08:24;;;;;;;73.07;29.27;;;-1.80;99.90;;;;;;4982207;28;20049;-78
2021/01/25 05:10:51;;;;;;;81.60;30.00;;;-1.80;99.90;;;;;;4979356;28;20079;-77
2021/01/25 05:13:24;;;;;;;63.65;26.23;;;-1.80;99.90;;;;;;4980924;28;20046;-78
2021/01/25 05:15:52;;;;;;;69.18;29.20;;;-1.80;99.90;;;;;;4982533;28;20046;-78
2021/01/25 05:18:23;;;;;;;69.38;28.40;;;-1.80;99.90;;;;;;4980804;28;20054;-78
2021/01/25 05:20:54;;;;;;;70.53;27.98;;;-1.80;99.90;;;;;;4978193;28;20056;-77
2021/01/25 05:23:20;;;;;;;75.10;29.75;;;-1.80;99.90;;;;;;4983143;28;20151;-77
2021/01/25 05:25:47;;;;;;;80.35;29.50;;;-1.80;99.90;;;;;;4983231;28;20561;-77
2021/01/25 05:28:20;;;;;;;78.32;28.63;;;-1.80;99.90;;;;;;4978954;28;20430;-77
2021/01/25 05:30:46;;;;;;;69.35;26.90;;;-1.80;99.90;;;;;;4981960;28;20073;-77
2021/01/25 05:33:13;;;;;;;71.95;28.58;;;-1.80;99.90;;;;;;4981218;28;20395;-78
2021/01/25 05:35:42;;;;;;;71.57;28.90;;;-1.90;99.90;;;;;;4986577;28;20085;-79
2021/01/25 05:38:09;;;;;;;72.35;28.05;;;-1.90;99.90;;;;;;4988061;28;20058;-78
2021/01/25 05:40:39;;;;;;;68.82;29.02;;;-1.90;99.90;;;;;;4987550;28;20055;-79
2021/01/25 05:43:16;;;;;;;71.50;28.40;;;-2.00;99.90;;;;;;4986694;28;20050;-78
2021/01/25 05:45:43;;;;;;;88.60;31.73;;;-2.00;99.90;;;;;;4987629;28;20666;-78
2021/01/25 05:48:13;;;;;;;81.45;30.42;;;-2.00;99.90;;;;;;4984165;28;20137;-78
2021/01/25 05:50:41;;;;;;;75.95;29.90;;;-2.00;99.90;;;;;;4989413;28;20498;-79
2021/01/25 05:53:12;;;;;;;76.93;30.77;;;-2.10;99.90;;;;;;5007147;28;20118;-79
2021/01/25 05:55:40;;;;;;;79.35;30.50;;;-2.10;99.90;;;;;;4988375;28;20042;-79
2021/01/25 05:58:07;;;;;;;81.47;30.92;;;-2.10;99.90;;;;;;4987501;28;20097;-79
2021/01/25 06:00:34;;;;;;;78.13;31.38;;;-2.10;99.90;;;;;;4989121;28;20136;-79
2021/01/25 06:03:02;;;;;;;86.47;31.85;;;-2.20;99.90;;;;;;4986304;28;20498;-79
2021/01/25 06:05:40;;;;;;;81.82;30.90;;;-2.20;99.90;;;;;;5005303;28;20108;-79
2021/01/25 06:08:43;;;;;;;75.70;28.95;;;-2.20;99.90;;;;;;4989539;28;20527;-80
2021/01/25 06:11:19;;;;;;;74.15;29.80;;;-2.30;99.90;;;;;;4990776;28;20114;-79
2021/01/25 06:13:54;;;;;;;76.93;30.42;;;-2.30;99.90;;;;;;4986393;28;20050;-79
2021/01/25 06:16:23;;;;;;;76.57;30.45;;;-2.40;99.90;;;;;;4983074;28;20062;-79
2021/01/25 06:18:52;;;;;;;78.95;31.73;;;-2.30;99.90;;;;;;4984857;28;20066;-79
2021/01/25 06:21:24;;;;;;;72.07;28.08;;;-2.40;99.90;;;;;;4980911;28;20151;-78
2021/01/25 06:23:52;;;;;;;73.65;28.85;;;-2.40;99.90;;;;;;4982673;28;20842;-78
2021/01/25 06:26:20;;;;;;;68.55;28.17;;;-2.40;99.90;;;;;;4978842;28;20054;-78
2021/01/25 06:28:49;;;;;;;75.70;30.10;;;-2.50;99.90;;;;;;4985248;28;20046;-79
2021/01/25 06:31:22;;;;;;;68.82;27.23;;;-2.50;99.90;;;;;;4983191;28;20054;-79
2021/01/25 06:33:49;;;;;;;79.25;29.83;;;-2.50;99.90;;;;;;5001934;28;20059;-78
2021/01/25 06:36:20;;;;;;;77.32;29.88;;;-2.50;99.90;;;;;;4990274;28;20065;-78
2021/01/25 06:38:48;;;;;;;73.45;28.90;;;-2.50;99.90;;;;;;4984727;28;20046;-78
2021/01/25 06:41:16;;;;;;;74.95;28.95;;;-2.60;99.90;;;;;;4989561;28;20097;-78
2021/01/25 06:43:48;;;;;;;86.72;32.28;;;-2.60;99.90;;;;;;5003014;28;20061;-77
2021/01/25 06:46:21;;;;;;;84.18;28.60;;;-2.60;99.90;;;;;;4983638;28;20042;-78
2021/01/25 06:48:49;;;;;;;74.47;32.67;;;-2.60;99.90;;;;;;4976807;28;20125;-78
2021/01/25 06:51:18;;;;;;;92.05;32.10;;;-2.70;99.90;;;;;;4983218;28;20137;-79
2021/01/25 06:53:47;;;;;;;85.47;32.95;;;-2.60;99.90;;;;;;4984225;28;20054;-78
2021/01/25 06:56:13;;;;;;;83.45;32.13;;;-2.60;99.90;;;;;;4979916;28;20747;-77
2021/01/25 06:58:45;;;;;;;76.80;30.38;;;-2.70;99.90;;;;;;4984116;28;20051;-77
2021/01/25 07:01:12;;;;;;;91.25;32.78;;;-2.70;99.90;;;;;;4982206;28;20051;-78
2021/01/25 07:03:56;;;;;;;76.05;31.08;;;-2.70;99.90;;;;;;4977731;28;20121;-78
2021/01/25 07:06:34;;;;;;;80.65;31.25;;;-2.80;99.90;;;;;;4978554;28;20061;-78
2021/01/25 07:09:04;;;;;;;80.28;29.52;;;-2.80;99.90;;;;;;4981369;28;20069;-78
2021/01/25 07:11:32;;;;;;;81.38;30.77;;;-2.80;99.90;;;;;;5001372;28;20157;-79
2021/01/25 07:13:59;;;;;;;79.47;29.58;;;-2.80;99.90;;;;;;4983303;28;20078;-78
2021/01/25 07:16:26;;;;;;;71.50;28.92;;;-2.80;99.90;;;;;;4984458;28;20470;-79
2021/01/25 07:18:54;;;;;;;75.55;30.58;;;-2.80;99.90;;;;;;4980279;28;20054;-77
2021/01/25 07:21:21;;;;;;;81.05;29.77;;;-2.90;99.90;;;;;;4978683;28;20585;-78
2021/01/25 07:23:49;;;;;;;80.00;29.40;;;-2.90;99.90;;;;;;4980669;28;20054;-77
2021/01/25 07:26:17;;;;;;;64.07;28.60;;;-2.90;99.90;;;;;;4994241;28;20133;-77
2021/01/25 07:28:45;;;;;;;71.03;28.23;;;-2.90;99.90;;;;;;4978313;28;20060;-77
2021/01/25 07:31:12;;;;;;;69.88;28.40;;;-2.90;99.90;;;;;;4976113;28;20165;-78
2021/01/25 07:33:38;;;;;;;83.13;28.50;;;-2.90;99.90;;;;;;4978332;28;20077;-77
2021/01/25 07:36:05;;;;;;;76.30;27.70;;;-2.90;99.90;;;;;;4971539;28;20046;-77
2021/01/25 07:38:33;;;;;;;101.15;33.40;;;-3.00;99.90;;;;;;4975237;28;20097;-78
2021/01/25 07:41:00;;;;;;;91.43;30.95;;;-2.90;99.90;;;;;;4981978;28;20420;-78
2021/01/25 07:43:28;;;;;;;82.32;29.40;;;-3.00;99.90;;;;;;4979888;28;20096;-78
2021/01/25 07:46:09;;;;;;;83.55;29.42;;;-2.90;99.90;;;;;;4972327;28;20621;-77
2021/01/25 07:48:51;;;;;;;105.90;33.28;;;-2.90;99.90;;;;;;4977670;28;20485;-77
2021/01/25 07:51:21;;;;;;;86.57;32.10;;;-2.90;99.90;;;;;;4981320;28;20058;-77
2021/01/25 07:53:48;;;;;;;79.93;30.85;;;-2.90;99.90;;;;;;4977635;28;20236;-77
2021/01/25 07:56:16;;;;;;;96.38;31.85;;;-2.90;99.90;;;;;;4976520;28;20048;-77
2021/01/25 07:58:42;;;;;;;102.78;32.67;;;-2.80;99.90;;;;;;4970063;28;20058;-77
2021/01/25 08:01:15;;;;;;;108.90;31.98;;;-2.80;99.90;;;;;;4978577;28;20426;-76
2021/01/25 08:03:43;;;;;;;80.60;30.92;;;-2.80;99.90;;;;;;4973167;28;20064;-77
2021/01/25 08:06:33;;;;;;;79.18;30.75;;;-2.80;99.90;;;;;;4991467;28;20042;-78
2021/01/25 08:09:02;;;;;;;81.93;30.35;;;-2.70;99.90;;;;;;4969665;28;20131;-78
2021/01/25 08:11:30;;;;;;;79.60;31.38;;;-2.70;99.90;;;;;;4976873;28;20072;-78
2021/01/25 08:14:19;;;;;;;86.70;32.50;;;-2.60;99.90;;;;;;4978352;28;20053;-77
2021/01/25 08:16:54;;;;;;;84.18;31.27;;;-2.60;99.90;;;;;;4970097;28;20139;-77
2021/01/25 08:19:35;;;;;;;72.47;28.95;;;-2.50;99.90;;;;;;4976080;28;20054;-77
2021/01/25 08:22:16;;;;;;;75.38;27.40;;;-2.40;99.90;;;;;;4971400;28;20421;-77
2021/01/25 08:24:42;;;;;;;69.55;29.05;;;-2.40;99.90;;;;;;4972522;28;20208;-77
2021/01/25 08:27:17;;;;;;;82.35;30.15;;;-2.30;99.90;;;;;;4979415;28;20050;-78
2021/01/25 08:29:48;;;;;;;82.38;27.88;;;-2.20;99.90;;;;;;4993956;28;20050;-77
2021/01/25 08:32:26;;;;;;;69.88;29.30;;;-2.20;99.90;;;;;;4963661;28;20146;-78
2021/01/25 08:35:01;;;;;;;71.55;29.05;;;-2.10;99.90;;;;;;4969768;28;20073;-80
2021/01/25 08:37:31;;;;;;;74.50;29.63;;;-2.00;99.90;;;;;;4967286;28;20047;-78
2021/01/25 08:39:58;;;;;;;76.05;30.15;;;-2.00;99.90;;;;;;4974720;28;20046;-79
2021/01/25 08:42:33;;;;;;;76.43;28.88;;;-1.90;99.90;;;;;;4971838;28;20058;-79
2021/01/25 08:45:08;;;;;;;83.25;32.00;;;-1.80;99.90;;;;;;4981155;28;20045;-78
2021/01/25 08:47:35;;;;;;;67.07;28.30;;;-1.80;99.90;;;;;;4975490;28;20506;-79
2021/01/25 08:50:03;;;;;;;85.30;32.55;;;-1.70;99.90;;;;;;4985550;28;20050;-79
2021/01/25 08:52:35;;;;;;;79.30;31.23;;;-1.60;99.90;;;;;;4979435;28;20124;-79
2021/01/25 08:55:05;;;;;;;88.70;33.92;;;-1.60;99.90;;;;;;4983600;28;20167;-79
2021/01/25 08:57:40;;;;;;;84.00;31.48;;;-1.40;99.90;;;;;;4979048;28;21525;-79
2021/01/25 09:00:16;;;;;;;81.50;32.10;;;-1.40;99.90;;;;;;4980906;28;20055;-78
2021/01/25 09:02:43;;;;;;;90.05;32.75;;;-1.20;99.90;;;;;;4981006;28;20173;-78
2021/01/25 09:05:11;;;;;;;78.65;32.65;;;-1.10;99.90;;;;;;4976438;28;20058;-78
2021/01/25 09:07:37;;;;;;;85.30;31.05;;;-1.00;99.90;;;;;;4975762;28;20110;-79
2021/01/25 09:10:06;;;;;;;85.75;32.08;;;-0.90;99.90;;;;;;4999907;28;20056;-78
2021/01/25 09:12:33;;;;;;;81.63;31.42;;;-0.80;99.90;;;;;;4979693;28;20047;-79
2021/01/25 09:14:59;;;;;;;83.88;34.90;;;-0.70;99.90;;;;;;4983521;28;20046;-80
2021/01/25 09:17:25;;;;;;;83.20;33.13;;;-0.60;99.90;;;;;;4979613;28;20054;-80
2021/01/25 09:19:52;;;;;;;85.05;33.92;;;-0.50;99.90;;;;;;4984254;28;20084;-79
2021/01/25 09:22:18;;;;;;;85.57;33.50;;;-0.40;99.90;;;;;;4975182;28;20047;-80
2021/01/25 09:24:45;;;;;;;82.80;30.45;;;-0.30;99.90;;;;;;4983690;28;20054;-78
2021/01/25 09:27:12;;;;;;;78.05;32.67;;;-0.20;99.90;;;;;;4978918;28;20046;-78
2021/01/25 09:29:38;;;;;;;73.85;32.65;;;-0.10;99.90;;;;;;4995300;28;20042;-78
2021/01/25 09:32:05;;;;;;;81.93;32.67;;;0.00;99.90;;;;;;4976021;28;20497;-78
2021/01/25 09:34:35;;;;;;;74.78;32.75;;;0.10;99.90;;;;;;4995671;28;20050;-80
2021/01/25 09:37:03;;;;;;;73.32;30.52;;;0.30;99.90;;;;;;4956053;28;20058;-78
2021/01/25 09:39:29;;;;;;;78.57;31.10;;;0.50;99.90;;;;;;4979541;28;20076;-77
2021/01/25 09:41:56;;;;;;;77.53;30.60;;;0.70;99.90;;;;;;4983616;28;20841;-77
2021/01/25 09:44:22;;;;;;;68.95;29.70;;;1.00;99.90;;;;;;4982910;28;20055;-77
2021/01/25 09:46:48;;;;;;;70.43;29.63;;;1.20;99.90;;;;;;4982930;28;20054;-78
2021/01/25 09:49:16;;;;;;;67.38;29.60;;;1.40;99.90;;;;;;4964557;28;20053;-79
2021/01/25 09:51:42;;;;;;;67.53;29.85;;;1.70;99.90;;;;;;4981711;28;20061;-78
2021/01/25 09:54:09;;;;;;;60.78;29.08;;;2.20;99.90;;;;;;4976415;28;20046;-78
2021/01/25 09:56:35;;;;;;;56.58;26.35;;;2.60;99.90;;;;;;4986652;28;20733;-78
2021/01/25 09:59:01;;;;;;;61.90;26.83;;;3.00;99.90;;;;;;4982379;28;20061;-79
2021/01/25 10:01:28;;;;;;;83.43;35.22;;;3.30;99.90;;;;;;4969615;28;20137;-78
2021/01/25 10:03:54;;;;;;;266.38;98.95;;;3.40;99.90;;;;;;4962560;28;20054;-77
2021/01/25 10:06:20;;;;;;;215.63;86.40;;;3.40;99.90;;;;;;4981264;28;20062;-78
2021/01/25 10:08:47;;;;;;;126.80;55.17;;;3.40;99.90;;;;;;4977537;28;20050;-78
2021/01/25 10:11:14;;;;;;;125.40;52.80;;;3.30;99.90;;;;;;4983419;28;20064;-78
2021/01/25 10:13:41;;;;;;;94.25;43.08;;;3.10;99.90;;;;;;4984781;28;20050;-79
2021/01/25 10:16:07;;;;;;;148.45;64.35;;;3.00;99.90;;;;;;4959806;28;20057;-79
2021/01/25 10:18:34;;;;;;;134.80;65.60;;;2.90;99.90;;;;;;4981531;28;20065;-78
2021/01/25 10:21:00;;;;;;;104.22;52.28;;;2.80;99.90;;;;;;4980739;28;20046;-79
2021/01/25 10:23:26;;;;;;;97.03;50.05;;;2.80;99.90;;;;;;4988465;28;20144;-79
2021/01/25 10:25:53;;;;;;;110.53;55.83;;;2.80;99.90;;;;;;4984381;28;20084;-79
2021/01/25 10:28:20;;;;;;;68.13;31.80;;;2.70;99.90;;;;;;4981207;28;20093;-79
2021/01/25 10:30:50;;;;;;;57.33;27.90;;;2.70;99.90;;;;;;4987732;28;20077;-79
2021/01/25 10:33:16;;;;;;;58.55;26.58;;;2.70;99.90;;;;;;4976251;28;20100;-79
2021/01/25 10:35:43;;;;;;;57.10;26.10;;;2.70;99.90;;;;;;4984914;28;20112;-79
2021/01/25 10:38:10;;;;;;;56.15;26.23;;;2.70;99.90;;;;;;4981302;28;20055;-79
2021/01/25 10:40:37;;;;;;;53.10;25.45;;;2.70;99.90;;;;;;4986492;28;20182;-78
2021/01/25 10:43:04;;;;;;;52.15;25.73;;;2.80;99.90;;;;;;4984495;28;20132;-79
2021/01/25 10:45:30;;;;;;;52.05;24.95;;;2.90;99.90;;;;;;4988113;28;20227;-78
2021/01/25 10:47:57;;;;;;;50.78;27.30;;;2.90;99.90;;;;;;4983936;28;20486;-78
2021/01/25 10:50:23;;;;;;;65.03;32.83;;;3.00;99.90;;;;;;4987162;28;20539;-79
2021/01/25 10:52:51;;;;;;;73.80;35.60;;;3.20;99.90;;;;;;4987628;28;20050;-78
2021/01/25 10:55:17;;;;;;;100.40;46.60;;;3.30;99.90;;;;;;4988714;28;20064;-78
2021/01/25 10:57:44;;;;;;;74.85;35.25;;;3.40;99.90;;;;;;4984570;28;20058;-78
2021/01/25 11:00:13;;;;;;;68.90;31.02;;;3.50;99.90;;;;;;4988249;28;20070;-79
2021/01/25 11:02:39;;;;;;;52.38;26.00;;;3.60;99.90;;;;;;4984056;28;20478;-78
2021/01/25 11:05:08;;;;;;;41.58;22.27;;;3.70;99.90;;;;;;4985981;28;20093;-78
2021/01/25 11:07:36;;;;;;;43.17;21.95;;;3.70;99.90;;;;;;4977269;28;20482;-78
2021/01/25 11:10:06;;;;;;;41.97;21.75;;;3.80;99.90;;;;;;4985025;28;20050;-79
2021/01/25 11:12:33;;;;;;;42.13;21.10;;;3.80;99.90;;;;;;4981372;28;20490;-79
2021/01/25 11:14:59;;;;;;;39.75;20.25;;;3.90;99.90;;;;;;4984240;28;20072;-78
2021/01/25 11:17:26;;;;;;;40.10;20.38;;;3.90;99.90;;;;;;4986949;28;20046;-79
2021/01/25 11:19:52;;;;;;;41.03;19.73;;;4.00;99.90;;;;;;4983626;28;20054;-78
2021/01/25 11:22:19;;;;;;;39.65;21.02;;;4.00;99.90;;;;;;4983818;28;20058;-79
2021/01/25 11:24:45;;;;;;;39.28;21.05;;;4.00;99.90;;;;;;4982461;28;20589;-79
2021/01/25 11:27:11;;;;;;;35.38;19.15;;;4.10;99.90;;;;;;4980912;28;20049;-79
2021/01/25 11:29:39;;;;;;;39.63;22.38;;;4.10;99.90;;;;;;4975045;28;20053;-79
2021/01/25 11:32:10;;;;;;;36.83;20.10;;;4.20;99.90;;;;;;4963708;28;20522;-79
2021/01/25 11:34:38;;;;;;;33.70;18.10;;;4.20;99.90;;;;;;4971924;28;20050;-79
2021/01/25 11:37:05;;;;;;;37.90;20.17;;;4.30;99.90;;;;;;4975156;28;20631;-79
2021/01/25 11:39:31;;;;;;;35.05;18.00;;;4.30;99.90;;;;;;4982333;28;20058;-79
2021/01/25 11:41:59;;;;;;;32.00;16.70;;;4.40;99.90;;;;;;4984312;28;20092;-79
2021/01/25 11:44:26;;;;;;;30.48;16.50;;;4.40;99.90;;;;;;4986449;28;20113;-79
2021/01/25 11:46:53;;;;;;;39.40;17.90;;;4.40;99.90;;;;;;4984290;28;20120;-79
2021/01/25 11:49:20;;;;;;;31.63;17.60;;;4.50;99.90;;;;;;4985183;28;20050;-79
2021/01/25 11:51:47;;;;;;;33.78;16.98;;;4.50;99.90;;;;;;4985463;28;20062;-79
2021/01/25 11:54:14;;;;;;;30.05;15.88;;;4.60;99.90;;;;;;4988306;28;20119;-78
2021/01/25 11:56:41;;;;;;;29.67;15.60;;;4.70;99.90;;;;;;4989455;28;20648;-80
2021/01/25 11:59:07;;;;;;;27.63;16.17;;;4.80;99.90;;;;;;4979931;28;20134;-79
2021/01/25 12:01:34;;;;;;;28.55;15.30;;;4.80;99.90;;;;;;4977294;28;20050;-77
2021/01/25 12:04:00;;;;;;;28.13;14.35;;;4.90;99.90;;;;;;4977363;28;20058;-77
2021/01/25 12:06:26;;;;;;;32.25;14.52;;;4.90;99.90;;;;;;4962980;28;20067;-77
2021/01/25 12:08:53;;;;;;;23.38;13.32;;;5.00;99.90;;;;;;4969417;28;20542;-78
2021/01/25 12:11:21;;;;;;;24.40;13.63;;;5.10;99.90;;;;;;4978365;28;20069;-78
2021/01/25 12:13:47;;;;;;;20.60;12.52;;;5.10;99.90;;;;;;4975821;28;20134;-78
2021/01/25 12:16:15;;;;;;;24.50;12.80;;;5.20;99.90;;;;;;4988388;28;20060;-78
2021/01/25 12:18:43;;;;;;;22.75;12.27;;;5.20;99.90;;;;;;4982906;28;20409;-77
2021/01/25 12:21:10;;;;;;;22.17;12.98;;;5.30;99.90;;;;;;4982107;28;20152;-78
2021/01/25 12:23:37;;;;;;;24.63;12.85;;;5.40;99.90;;;;;;4978872;28;20074;-78
2021/01/25 12:26:04;;;;;;;26.58;12.43;;;5.50;99.90;;;;;;4981788;28;20100;-78
2021/01/25 12:28:30;;;;;;;20.98;12.45;;;5.60;99.90;;;;;;4981074;28;20058;-78
2021/01/25 12:30:59;;;;;;;23.15;12.68;;;5.70;99.90;;;;;;4979368;28;20058;-78
2021/01/25 12:33:25;;;;;;;20.58;10.85;;;5.70;99.90;;;;;;4983970;28;20054;-78